Main page
METAR-TAF:

METAR-TAF

Airports :

Mount Isa Airport

Mount Isa, Australia

latitude: 20-40S, longitude: 139-28E, elevation: 342 m

Current weather observation

The report was made 54 minutes ago, at 06:00 UTC
Wind 13 kt from the South/Southeast
Temperature 29°C
Humidity 20%
Pressure 1015 hPa
Visibility 10 km or more

METAR: YBMA 150600Z AUTO 15013KT 9999 // NCD 29/04 Q1015 RF00.0/000.0

Time: 16:54 (06:54 UTC)

Forecast

The report was made 1 hour and 26 minutes ago, at 05:28 UTC
Forecast valid from 15 at 06 UTC to 15 at 18 UTC
Wind 10 kt from the South
Visibility 10 km or more
no clouds below 1500 m and no cumulonimbus

TAF: YBMA 150528Z 1506/1518 19010KT CAVOK

Weather observations and forecasts of more than 4000 airports (METAR and TAF reports).

The available stations are represented by yellow and red dots on the map.

Hover mouse over dot to see the name of the station.

Then click to see weather observations and forecasts.

To change the map : click on the green buttons with a black cross to zoom in, on the green button with a dash to zoom out, or on the green arrows for adjacent maps.


METAR-TAF: